Terminal Aerodrome Forecast
Issued by NWS

Home | Current Version | Previous Version | Text Only | Print | Product List | Glossary On
Versions: 1 2 3 4 5 6 7 8 9 10 11 12 13 14 15 16 17 18 19
000
FTUS43 KTOP 021400 AAB
TAFFOE
TAF AMD
KFOE 021429Z 0214/0312 09004KT 4SM -TSRA OVC006CB
     FM021530 33012G20KT P6SM SCT023 BKN040
     FM022000 33014G23KT P6SM BKN060
     FM030400 32010KT P6SM SKC=

USA.gov is the U.S. government's official web portal to all federal, state and local government web resources and services.